createdAt,value
2018-07-31T00:00:14.620Z,61.01
2018-07-31T00:02:42.951Z,60.81
2018-07-31T00:05:11.473Z,61.17
2018-07-31T00:07:39.823Z,61.62
2018-07-31T00:10:08.160Z,61.26
2018-07-31T00:12:36.524Z,61.24
2018-07-31T00:15:07.452Z,60.86
2018-07-31T00:17:35.864Z,60.81
2018-07-31T00:20:04.200Z,61.15
2018-07-31T00:22:32.732Z,61.51
2018-07-31T00:25:01.070Z,61.61
2018-07-31T00:27:29.467Z,60.97
2018-07-31T00:29:57.809Z,61.39
2018-07-31T00:32:26.215Z,61.75
2018-07-31T00:34:55.076Z,61.17
2018-07-31T00:37:23.640Z,62.07
2018-07-31T00:39:52.025Z,61.85
2018-07-31T00:42:20.376Z,61.47
2018-07-31T00:44:48.830Z,62.00
2018-07-31T00:47:17.155Z,61.98
2018-07-31T00:49:45.494Z,61.55
2018-07-31T00:52:14.042Z,62.14
2018-07-31T00:54:42.414Z,61.66
2018-07-31T00:57:10.716Z,61.46
2018-07-31T00:59:39.064Z,61.43
2018-07-31T01:02:07.462Z,61.48
2018-07-31T01:04:35.796Z,61.31
2018-07-31T01:07:04.144Z,62.27
2018-07-31T01:09:32.471Z,62.50
2018-07-31T01:12:00.839Z,62.36
2018-07-31T01:14:29.439Z,62.02
2018-07-31T01:16:57.832Z,61.90
2018-07-31T01:19:26.195Z,62.48
2018-07-31T01:21:54.808Z,62.70
2018-07-31T01:24:23.281Z,62.81
2018-07-31T01:26:51.643Z,62.79
2018-07-31T01:29:19.969Z,62.13
2018-07-31T01:31:48.629Z,62.41
2018-07-31T01:34:16.944Z,63.36
2018-07-31T01:36:45.402Z,63.27
2018-07-31T01:39:13.794Z,63.64
2018-07-31T01:41:42.389Z,63.94
2018-07-31T01:44:10.752Z,63.05
2018-07-31T01:46:39.113Z,64.02
2018-07-31T01:49:07.499Z,63.69
2018-07-31T01:51:35.884Z,64.96
2018-07-31T01:54:11.104Z,64.13
2018-07-31T01:56:39.476Z,65.00
2018-07-31T01:59:07.851Z,64.95
2018-07-31T02:01:36.249Z,65.06
2018-07-31T02:04:04.579Z,65.05
2018-07-31T02:06:32.932Z,65.19
2018-07-31T02:09:01.381Z,65.33
2018-07-31T02:11:29.704Z,65.66
2018-07-31T02:13:58.030Z,66.18
2018-07-31T02:16:26.333Z,66.10
2018-07-31T02:18:54.652Z,66.38
2018-07-31T02:21:22.994Z,66.34
2018-07-31T02:23:51.312Z,67.28
2018-07-31T02:26:19.636Z,67.02
2018-07-31T02:28:48.179Z,66.55
2018-07-31T02:31:16.517Z,66.89
2018-07-31T02:33:44.949Z,67.04
2018-07-31T02:36:13.392Z,66.33
2018-07-31T02:38:41.764Z,66.94
2018-07-31T02:41:10.071Z,67.12
2018-07-31T02:43:38.433Z,67.04
2018-07-31T02:46:06.797Z,67.44
2018-07-31T02:48:35.137Z,67.05
2018-07-31T02:51:03.495Z,66.90
2018-07-31T02:53:31.863Z,67.87
2018-07-31T02:56:00.233Z,67.67
2018-07-31T02:58:28.621Z,67.82
2018-07-31T03:00:56.988Z,68.12
2018-07-31T03:03:25.332Z,68.23
2018-07-31T03:05:54.125Z,68.87
2018-07-31T03:08:22.487Z,69.00
2018-07-31T03:10:50.947Z,68.94
2018-07-31T03:13:19.308Z,69.11
2018-07-31T03:15:47.635Z,69.53
2018-07-31T03:18:16.000Z,69.95
2018-07-31T03:20:44.366Z,69.66
2018-07-31T03:23:12.741Z,70.34
2018-07-31T03:25:41.088Z,69.72
2018-07-31T03:28:09.493Z,70.45
2018-07-31T03:30:37.807Z,70.35
2018-07-31T03:33:06.273Z,69.84
2018-07-31T03:35:34.588Z,70.06
2018-07-31T03:38:03.123Z,70.84
2018-07-31T03:40:31.565Z,70.95
2018-07-31T03:42:59.935Z,70.83
2018-07-31T03:45:29.223Z,70.92
2018-07-31T03:47:57.547Z,71.45
2018-07-31T03:50:25.908Z,71.73
2018-07-31T03:52:54.245Z,71.96
2018-07-31T03:55:22.623Z,71.97
2018-07-31T03:57:50.944Z,72.56
2018-07-31T04:00:19.307Z,72.45
2018-07-31T04:02:47.667Z,72.18
2018-07-31T04:05:16.024Z,72.42
2018-07-31T04:07:44.345Z,72.57
2018-07-31T04:10:12.712Z,72.27
2018-07-31T04:12:41.054Z,72.01
2018-07-31T04:15:09.403Z,71.97
2018-07-31T04:17:37.771Z,71.88
2018-07-31T04:20:06.307Z,72.01
2018-07-31T04:22:34.790Z,72.14
2018-07-31T04:25:03.119Z,72.34
2018-07-31T04:27:31.469Z,72.43
2018-07-31T04:29:59.967Z,71.56
2018-07-31T04:32:28.293Z,72.23
2018-07-31T04:34:56.639Z,70.61
2018-07-31T04:37:24.982Z,69.57
2018-07-31T04:39:53.353Z,67.02
2018-07-31T04:42:21.749Z,65.62
2018-07-31T04:44:50.081Z,63.97
2018-07-31T04:47:18.399Z,62.42
2018-07-31T04:49:46.739Z,63.07
2018-07-31T04:52:15.055Z,64.15
2018-07-31T04:54:43.379Z,65.70
2018-07-31T04:57:11.689Z,65.46
2018-07-31T04:59:40.040Z,64.65
2018-07-31T05:02:08.394Z,65.96
2018-07-31T05:04:36.730Z,65.41
2018-07-31T05:07:05.299Z,62.52
2018-07-31T05:09:33.750Z,60.49
2018-07-31T05:12:02.108Z,57.28
2018-07-31T05:14:30.439Z,56.53
2018-07-31T05:16:58.812Z,54.40
2018-07-31T05:19:27.135Z,52.99
2018-07-31T05:21:55.507Z,50.94
2018-07-31T05:24:23.842Z,49.54
2018-07-31T05:26:52.136Z,48.62
2018-07-31T05:29:20.535Z,47.69
2018-07-31T05:31:48.876Z,48.04
2018-07-31T05:34:17.255Z,47.69
2018-07-31T05:36:45.594Z,46.65
2018-07-31T05:39:13.977Z,47.56
2018-07-31T05:41:42.346Z,47.84
2018-07-31T05:44:10.846Z,47.30
2018-07-31T05:46:39.243Z,46.29
2018-07-31T05:49:07.637Z,46.14
2018-07-31T05:51:36.161Z,47.66
2018-07-31T05:54:04.568Z,47.85
2018-07-31T05:56:32.905Z,48.15
2018-07-31T05:59:01.231Z,49.47
2018-07-31T06:01:29.604Z,50.58
2018-07-31T06:03:57.908Z,51.31
2018-07-31T06:06:26.364Z,50.68
2018-07-31T06:08:54.698Z,51.94
2018-07-31T06:11:23.072Z,52.72
2018-07-31T06:13:51.439Z,52.40
2018-07-31T06:16:19.801Z,52.62
2018-07-31T06:18:48.152Z,54.40
2018-07-31T06:21:16.471Z,55.86
2018-07-31T06:23:44.839Z,55.63
2018-07-31T06:26:13.129Z,56.79
2018-07-31T06:28:41.495Z,56.57
2018-07-31T06:31:09.818Z,56.51
2018-07-31T06:33:38.177Z,55.70
2018-07-31T06:36:06.523Z,55.95
2018-07-31T06:38:34.907Z,56.32
2018-07-31T06:41:03.246Z,56.66
2018-07-31T06:43:31.732Z,56.90
2018-07-31T06:46:00.057Z,56.67
2018-07-31T06:48:28.384Z,57.47
2018-07-31T06:50:56.763Z,56.20
2018-07-31T06:53:25.336Z,56.69
2018-07-31T06:55:53.684Z,55.93
2018-07-31T06:58:22.026Z,56.21
2018-07-31T07:00:50.460Z,56.69
2018-07-31T07:03:18.789Z,55.80
2018-07-31T07:05:47.136Z,54.60
2018-07-31T07:08:15.489Z,54.17
2018-07-31T07:10:43.844Z,54.11
2018-07-31T07:13:12.237Z,54.25
2018-07-31T07:15:40.604Z,54.09
2018-07-31T07:18:08.989Z,54.35
2018-07-31T07:20:37.277Z,53.95
2018-07-31T07:23:05.680Z,55.30
2018-07-31T07:25:33.986Z,54.40
2018-07-31T07:28:02.485Z,54.25
2018-07-31T07:30:30.756Z,54.44
2018-07-31T07:32:59.061Z,54.70
2018-07-31T07:35:27.390Z,55.70
2018-07-31T07:37:55.714Z,55.61
2018-07-31T07:40:24.076Z,55.64
2018-07-31T07:42:52.426Z,54.48
2018-07-31T07:45:20.783Z,54.85
2018-07-31T07:47:49.192Z,54.46
2018-07-31T07:50:17.683Z,53.71
2018-07-31T07:52:46.025Z,54.21
2018-07-31T07:55:14.487Z,53.72
2018-07-31T07:57:42.851Z,53.39
2018-07-31T08:00:11.783Z,53.30
2018-07-31T08:02:40.113Z,52.61
2018-07-31T08:05:08.956Z,52.85
2018-07-31T08:07:37.344Z,52.89
2018-07-31T08:10:06.117Z,51.59
2018-07-31T08:12:34.488Z,51.66
2018-07-31T08:15:02.893Z,52.46
2018-07-31T08:17:31.223Z,51.46
2018-07-31T08:19:59.556Z,51.75
2018-07-31T08:22:27.931Z,52.31
2018-07-31T08:24:56.311Z,52.94
2018-07-31T08:27:24.657Z,53.25
2018-07-31T08:29:53.059Z,52.73
2018-07-31T08:32:21.408Z,52.49
2018-07-31T08:34:49.788Z,52.82
2018-07-31T08:37:18.136Z,52.33
2018-07-31T08:39:46.480Z,52.19
2018-07-31T08:42:14.889Z,49.28
2018-07-31T08:44:43.274Z,49.66
2018-07-31T08:47:11.677Z,49.62
2018-07-31T08:49:40.024Z,49.28
2018-07-31T08:52:08.393Z,51.76
2018-07-31T08:54:36.724Z,50.81
2018-07-31T08:57:05.109Z,51.38
2018-07-31T08:59:33.556Z,50.77
2018-07-31T09:02:01.975Z,51.16
2018-07-31T09:04:30.300Z,50.12
2018-07-31T09:06:58.633Z,49.53
2018-07-31T09:09:26.958Z,48.78
2018-07-31T09:11:55.294Z,49.41
2018-07-31T09:14:23.629Z,47.92
2018-07-31T09:16:52.033Z,46.74
2018-07-31T09:19:20.347Z,48.26
2018-07-31T09:21:48.689Z,46.71
2018-07-31T09:24:17.067Z,46.16
2018-07-31T09:26:45.373Z,46.97
2018-07-31T09:29:13.751Z,46.95
2018-07-31T09:31:42.942Z,47.24
2018-07-31T09:34:11.295Z,44.99
2018-07-31T09:36:39.642Z,44.73
2018-07-31T09:39:09.562Z,44.27
2018-07-31T09:41:37.965Z,45.72
2018-07-31T09:44:06.725Z,43.76
2018-07-31T09:46:35.093Z,43.88
2018-07-31T09:49:03.461Z,43.30
2018-07-31T09:51:31.852Z,43.40
2018-07-31T09:54:00.235Z,43.24
2018-07-31T09:56:28.570Z,43.26
2018-07-31T09:58:57.271Z,43.54
2018-07-31T10:01:25.632Z,40.79
2018-07-31T10:03:53.937Z,42.67
2018-07-31T10:06:22.299Z,43.08
2018-07-31T10:08:50.632Z,42.20
2018-07-31T10:11:19.012Z,42.52
2018-07-31T10:13:47.351Z,41.96
2018-07-31T10:16:15.730Z,42.04
2018-07-31T10:18:44.058Z,41.43
2018-07-31T10:21:12.376Z,41.24
2018-07-31T10:23:40.734Z,41.09
2018-07-31T10:26:09.099Z,42.16
2018-07-31T10:28:37.459Z,41.36
2018-07-31T10:31:05.777Z,42.52
2018-07-31T10:33:34.122Z,41.76
2018-07-31T10:36:02.475Z,41.47
2018-07-31T10:38:30.799Z,41.67
2018-07-31T10:40:59.150Z,40.42
2018-07-31T10:43:27.474Z,39.72
2018-07-31T10:45:55.857Z,40.86
2018-07-31T10:48:24.272Z,40.68
2018-07-31T10:50:52.621Z,39.17
2018-07-31T10:53:20.981Z,36.80
2018-07-31T10:55:49.436Z,37.18
2018-07-31T10:58:17.775Z,37.27
2018-07-31T11:00:46.134Z,36.48
2018-07-31T11:03:14.547Z,37.26
2018-07-31T11:05:42.819Z,37.02
2018-07-31T11:08:11.159Z,36.78
2018-07-31T11:10:39.533Z,37.09
2018-07-31T11:13:07.939Z,36.98
2018-07-31T11:15:36.252Z,37.83
2018-07-31T11:18:04.592Z,37.39
2018-07-31T11:20:32.979Z,37.47
2018-07-31T11:23:01.328Z,37.80
2018-07-31T11:25:29.705Z,37.14
2018-07-31T11:27:58.048Z,36.52
2018-07-31T11:30:26.401Z,36.12
2018-07-31T11:32:54.821Z,36.29
2018-07-31T11:35:23.174Z,35.64
2018-07-31T11:37:51.549Z,34.02
2018-07-31T11:40:19.993Z,34.82
2018-07-31T11:42:48.369Z,35.67
2018-07-31T11:45:16.706Z,36.34
2018-07-31T11:47:45.060Z,36.08
2018-07-31T11:50:13.517Z,36.70
2018-07-31T11:52:41.829Z,35.99
2018-07-31T11:55:10.195Z,36.46
2018-07-31T11:57:38.540Z,37.32
2018-07-31T12:00:09.546Z,36.58
2018-07-31T12:02:37.857Z,36.83
2018-07-31T12:05:06.574Z,35.41
2018-07-31T12:07:34.999Z,36.07
2018-07-31T12:10:03.449Z,37.07
2018-07-31T12:12:31.783Z,36.56
2018-07-31T12:15:00.260Z,36.84
2018-07-31T12:17:28.689Z,36.29
2018-07-31T12:19:57.045Z,36.70
2018-07-31T12:22:25.352Z,37.44
2018-07-31T12:24:53.742Z,37.08
2018-07-31T12:27:22.089Z,38.21
2018-07-31T12:29:50.417Z,37.20
2018-07-31T12:32:18.811Z,36.06
2018-07-31T12:34:47.153Z,36.72
2018-07-31T12:37:15.465Z,36.02
2018-07-31T12:39:43.823Z,36.04
2018-07-31T12:42:12.161Z,36.80
2018-07-31T12:44:40.502Z,35.39
2018-07-31T12:47:08.925Z,36.01
2018-07-31T12:49:37.343Z,35.39
2018-07-31T12:52:05.689Z,36.02
2018-07-31T12:54:34.000Z,36.76
2018-07-31T12:57:02.343Z,36.19
2018-07-31T12:59:30.693Z,35.96
2018-07-31T13:01:59.020Z,36.82
2018-07-31T13:04:27.318Z,36.77
2018-07-31T13:06:55.666Z,36.53
2018-07-31T13:09:24.017Z,36.86
2018-07-31T13:11:52.482Z,37.22
2018-07-31T13:14:20.824Z,37.04
2018-07-31T13:16:49.197Z,35.72
2018-07-31T13:19:17.631Z,35.38
2018-07-31T13:21:46.284Z,34.34
2018-07-31T13:24:14.635Z,34.81
2018-07-31T13:26:42.971Z,34.66
2018-07-31T13:29:11.335Z,34.50
2018-07-31T13:31:39.635Z,34.91
2018-07-31T13:34:07.990Z,34.78
2018-07-31T13:36:36.411Z,35.18
2018-07-31T13:39:07.887Z,34.45
2018-07-31T13:41:36.328Z,34.68
2018-07-31T13:44:05.385Z,35.87
2018-07-31T13:46:33.672Z,35.52
2018-07-31T13:49:02.086Z,35.81
2018-07-31T13:51:30.633Z,35.33
2018-07-31T13:53:58.960Z,36.56
2018-07-31T13:56:27.639Z,35.24
2018-07-31T13:58:56.099Z,35.11
2018-07-31T14:01:24.409Z,35.89
2018-07-31T14:03:52.917Z,35.27
2018-07-31T14:06:21.288Z,37.38
2018-07-31T14:08:49.626Z,37.26
2018-07-31T14:11:18.043Z,38.58
2018-07-31T14:13:46.443Z,38.39
2018-07-31T14:16:14.712Z,38.34
2018-07-31T14:18:43.020Z,37.98
2018-07-31T14:21:11.528Z,38.91
2018-07-31T14:23:39.960Z,38.43
2018-07-31T14:26:08.286Z,38.48
2018-07-31T14:28:36.669Z,37.93
2018-07-31T14:31:05.022Z,38.39
2018-07-31T14:33:33.332Z,39.07
2018-07-31T14:36:01.662Z,38.94
2018-07-31T14:38:30.005Z,39.31
2018-07-31T14:40:58.432Z,38.61
2018-07-31T14:43:26.743Z,39.36
2018-07-31T14:45:55.078Z,39.17
2018-07-31T14:48:23.409Z,38.27
2018-07-31T14:50:51.732Z,38.15
2018-07-31T14:53:20.187Z,38.42
2018-07-31T14:55:48.540Z,38.29
2018-07-31T14:58:16.895Z,38.09
2018-07-31T15:00:45.247Z,38.14
2018-07-31T15:03:13.727Z,37.50
2018-07-31T15:05:42.077Z,37.83
2018-07-31T15:08:10.396Z,37.13
2018-07-31T15:10:38.772Z,38.00
2018-07-31T15:13:07.054Z,37.93
2018-07-31T15:15:35.396Z,36.13
2018-07-31T15:18:03.719Z,37.23
2018-07-31T15:20:32.091Z,36.60
2018-07-31T15:23:00.452Z,37.16
2018-07-31T15:25:28.807Z,36.75
2018-07-31T15:27:57.195Z,35.34
2018-07-31T15:30:25.586Z,34.93
2018-07-31T15:32:53.934Z,34.35
2018-07-31T15:35:22.283Z,35.85
2018-07-31T15:37:50.672Z,35.54
2018-07-31T15:40:19.088Z,35.84
2018-07-31T15:42:47.456Z,35.67
2018-07-31T15:45:15.747Z,36.39
2018-07-31T15:47:44.128Z,36.59
2018-07-31T15:50:12.435Z,37.78
2018-07-31T15:52:40.782Z,37.01
2018-07-31T15:55:09.383Z,37.42
2018-07-31T15:57:37.728Z,36.61
2018-07-31T16:00:08.357Z,37.42
2018-07-31T16:02:36.888Z,36.46
2018-07-31T16:05:05.695Z,36.03
2018-07-31T16:07:34.056Z,35.95
2018-07-31T16:10:02.410Z,35.64
2018-07-31T16:12:30.734Z,34.74
2018-07-31T16:14:59.068Z,35.16
2018-07-31T16:17:27.422Z,33.54
2018-07-31T16:19:56.063Z,34.21
2018-07-31T16:22:24.981Z,33.46
2018-07-31T16:24:53.499Z,33.38
2018-07-31T16:27:21.816Z,32.60
2018-07-31T16:29:50.165Z,33.16
2018-07-31T16:32:18.563Z,33.32
2018-07-31T16:34:46.888Z,33.06
2018-07-31T16:37:15.271Z,32.79
2018-07-31T16:39:43.668Z,32.44
2018-07-31T16:42:12.020Z,33.16
2018-07-31T16:44:40.410Z,33.42
2018-07-31T16:47:08.987Z,33.90
2018-07-31T16:49:37.347Z,34.40
2018-07-31T16:52:05.706Z,35.64
2018-07-31T16:54:34.182Z,34.94
2018-07-31T16:57:02.828Z,35.90
2018-07-31T16:59:31.113Z,35.60
2018-07-31T17:01:59.453Z,35.79
2018-07-31T17:04:27.847Z,35.67
2018-07-31T17:06:56.469Z,37.15
2018-07-31T17:09:24.831Z,36.83
2018-07-31T17:11:53.213Z,37.95
2018-07-31T17:14:21.636Z,37.34
2018-07-31T17:16:50.138Z,37.91
2018-07-31T17:19:18.511Z,38.08
2018-07-31T17:21:46.851Z,38.06
2018-07-31T17:24:15.644Z,38.06
2018-07-31T17:26:44.082Z,39.07
2018-07-31T17:29:12.439Z,38.37
2018-07-31T17:31:40.753Z,38.88
2018-07-31T17:34:09.066Z,39.16
2018-07-31T17:36:37.399Z,38.05
2018-07-31T17:39:08.140Z,38.16
2018-07-31T17:41:36.622Z,39.08
2018-07-31T17:44:05.403Z,38.98
2018-07-31T17:46:33.905Z,39.44
2018-07-31T17:49:02.344Z,38.85
2018-07-31T17:51:30.720Z,38.83
2018-07-31T17:53:59.071Z,39.05
2018-07-31T17:56:27.475Z,40.20
2018-07-31T17:58:55.828Z,40.28
2018-07-31T18:01:24.239Z,40.76
2018-07-31T18:03:52.693Z,41.03
2018-07-31T18:06:21.074Z,41.19
2018-07-31T18:08:49.416Z,41.20
2018-07-31T18:11:17.960Z,40.76
2018-07-31T18:13:46.324Z,41.41
2018-07-31T18:16:14.711Z,41.72
2018-07-31T18:18:43.095Z,41.51
2018-07-31T18:21:11.580Z,41.56
2018-07-31T18:23:40.315Z,41.20
2018-07-31T18:26:08.684Z,41.98
2018-07-31T18:28:37.217Z,41.91
2018-07-31T18:31:05.822Z,41.25
2018-07-31T18:33:34.157Z,41.39
2018-07-31T18:36:02.985Z,41.66
2018-07-31T18:38:31.726Z,42.04
2018-07-31T18:41:00.139Z,43.09
2018-07-31T18:43:28.598Z,43.00
2018-07-31T18:45:56.966Z,42.49
2018-07-31T18:48:25.578Z,42.40
2018-07-31T18:50:54.200Z,43.08
2018-07-31T18:53:22.759Z,43.17
2018-07-31T18:55:51.365Z,42.80
2018-07-31T18:58:19.718Z,43.55
2018-07-31T19:00:48.171Z,42.79
2018-07-31T19:03:16.489Z,42.86
2018-07-31T19:05:44.817Z,43.32
2018-07-31T19:08:13.175Z,42.96
2018-07-31T19:10:41.546Z,43.77
2018-07-31T19:13:09.976Z,43.00
2018-07-31T19:15:38.467Z,43.86
2018-07-31T19:18:06.898Z,43.93
2018-07-31T19:20:35.256Z,43.04
2018-07-31T19:23:03.804Z,43.93
2018-07-31T19:25:32.214Z,43.76
2018-07-31T19:28:00.636Z,44.21
2018-07-31T19:30:28.902Z,43.50
2018-07-31T19:32:57.262Z,43.49
2018-07-31T19:35:25.834Z,44.06
2018-07-31T19:37:54.231Z,44.73
2018-07-31T19:40:23.037Z,44.75
2018-07-31T19:42:51.463Z,45.04
2018-07-31T19:45:19.869Z,44.99
2018-07-31T19:47:48.552Z,44.38
2018-07-31T19:50:16.981Z,45.03
2018-07-31T19:52:45.615Z,45.30
2018-07-31T19:55:13.945Z,45.06
2018-07-31T19:57:42.339Z,44.53
2018-07-31T20:00:10.694Z,45.44
2018-07-31T20:02:39.059Z,44.68
2018-07-31T20:05:07.679Z,44.89
2018-07-31T20:07:36.072Z,44.62
2018-07-31T20:10:04.873Z,44.68
2018-07-31T20:12:33.208Z,45.52
2018-07-31T20:15:01.663Z,44.99
2018-07-31T20:17:30.057Z,45.42
2018-07-31T20:19:58.433Z,45.29
2018-07-31T20:22:26.758Z,44.98
2018-07-31T20:24:55.135Z,45.35
2018-07-31T20:27:23.513Z,45.29
2018-07-31T20:29:52.064Z,44.66
2018-07-31T20:32:20.558Z,45.28
2018-07-31T20:34:48.930Z,45.07
2018-07-31T20:37:17.244Z,44.89
2018-07-31T20:39:45.631Z,44.29
2018-07-31T20:42:14.006Z,44.18
2018-07-31T20:44:42.461Z,44.26
2018-07-31T20:47:10.921Z,44.59
2018-07-31T20:49:39.267Z,44.31
2018-07-31T20:52:07.633Z,44.65
2018-07-31T20:54:35.984Z,44.95
2018-07-31T20:57:04.383Z,45.04
2018-07-31T20:59:32.703Z,44.73
2018-07-31T21:02:01.043Z,44.24
2018-07-31T21:04:29.390Z,44.59
2018-07-31T21:06:57.762Z,44.51
2018-07-31T21:09:26.113Z,44.44
2018-07-31T21:11:54.655Z,44.39
2018-07-31T21:14:23.072Z,44.21
2018-07-31T21:16:51.396Z,44.29
2018-07-31T21:19:19.768Z,44.67
2018-07-31T21:21:48.100Z,44.97
2018-07-31T21:24:16.447Z,45.36
2018-07-31T21:26:44.754Z,44.65
2018-07-31T21:29:13.163Z,45.03
2018-07-31T21:31:41.508Z,45.37
2018-07-31T21:34:09.829Z,45.26
2018-07-31T21:36:38.172Z,45.89
2018-07-31T21:39:09.664Z,45.96
2018-07-31T21:41:38.164Z,45.96
2018-07-31T21:44:06.540Z,46.22
2018-07-31T21:46:34.918Z,46.62
2018-07-31T21:49:03.259Z,46.70
2018-07-31T21:51:31.634Z,47.27
2018-07-31T21:53:59.957Z,47.02
2018-07-31T21:56:28.288Z,47.79
2018-07-31T21:58:56.632Z,47.43
2018-07-31T22:01:24.989Z,48.65
2018-07-31T22:03:53.328Z,48.17
2018-07-31T22:06:21.642Z,49.21
2018-07-31T22:08:50.094Z,48.71
2018-07-31T22:11:18.494Z,48.93
2018-07-31T22:13:46.798Z,49.14
2018-07-31T22:16:15.224Z,49.04
2018-07-31T22:18:43.513Z,49.32
2018-07-31T22:21:11.884Z,49.46
2018-07-31T22:23:40.221Z,50.23
2018-07-31T22:26:08.559Z,50.51
2018-07-31T22:28:36.928Z,50.64
2018-07-31T22:31:05.310Z,50.25
2018-07-31T22:33:33.668Z,50.69
2018-07-31T22:36:01.990Z,50.20
2018-07-31T22:38:30.318Z,50.87
2018-07-31T22:40:58.642Z,51.11
2018-07-31T22:43:27.054Z,50.48
2018-07-31T22:45:55.320Z,51.14
2018-07-31T22:48:23.678Z,50.63
2018-07-31T22:50:52.083Z,51.11
2018-07-31T22:53:20.449Z,51.63
2018-07-31T22:55:48.780Z,51.02
2018-07-31T22:58:17.119Z,51.31
2018-07-31T23:00:45.461Z,51.41
2018-07-31T23:03:13.789Z,51.72
2018-07-31T23:05:42.113Z,51.78
2018-07-31T23:08:10.450Z,52.01
2018-07-31T23:10:38.831Z,52.32
2018-07-31T23:13:07.177Z,52.31
2018-07-31T23:15:35.590Z,52.61
2018-07-31T23:18:03.950Z,52.32
2018-07-31T23:20:32.309Z,52.17
2018-07-31T23:23:00.605Z,52.66
2018-07-31T23:25:28.947Z,52.07
2018-07-31T23:27:57.266Z,52.53
2018-07-31T23:30:25.565Z,52.88
2018-07-31T23:32:53.920Z,52.46
2018-07-31T23:35:22.248Z,53.24
2018-07-31T23:37:50.715Z,52.74
2018-07-31T23:40:19.026Z,53.13
2018-07-31T23:42:47.338Z,53.06
2018-07-31T23:45:15.691Z,53.36
2018-07-31T23:47:44.027Z,53.19
2018-07-31T23:50:12.394Z,52.68
2018-07-31T23:52:40.780Z,53.14
2018-07-31T23:55:09.233Z,52.71
2018-07-31T23:57:37.559Z,53.14
